sensor_id;sensor_type;location;lat;lon;timestamp;P1;durP1;ratioP1;P2;durP2;ratioP2
21825;SDS011;11075;47.944;11.776;2022-10-31T00:03:52;10.77;;;5.07;;
21825;SDS011;11075;47.944;11.776;2022-10-31T00:06:22;13.83;;;4.60;;
21825;SDS011;11075;47.944;11.776;2022-10-31T00:08:52;8.90;;;4.37;;
21825;SDS011;11075;47.944;11.776;2022-10-31T00:11:23;14.90;;;4.63;;
21825;SDS011;11075;47.944;11.776;2022-10-31T00:13:50;8.00;;;4.77;;
21825;SDS011;11075;47.944;11.776;2022-10-31T00:16:22;16.30;;;4.97;;
21825;SDS011;11075;47.944;11.776;2022-10-31T00:18:51;11.70;;;4.40;;
21825;SDS011;11075;47.944;11.776;2022-10-31T00:21:19;8.10;;;4.40;;
21825;SDS011;11075;47.944;11.776;2022-10-31T00:23:46;10.07;;;4.00;;
21825;SDS011;11075;47.944;11.776;2022-10-31T00:26:13;8.60;;;4.30;;
21825;SDS011;11075;47.944;11.776;2022-10-31T00:28:40;10.43;;;4.27;;
21825;SDS011;11075;47.944;11.776;2022-10-31T00:31:08;16.20;;;5.10;;
21825;SDS011;11075;47.944;11.776;2022-10-31T00:33:37;9.87;;;4.80;;
21825;SDS011;11075;47.944;11.776;2022-10-31T00:36:07;11.00;;;4.47;;
21825;SDS011;11075;47.944;11.776;2022-10-31T00:38:41;8.90;;;4.97;;
21825;SDS011;11075;47.944;11.776;2022-10-31T00:41:10;7.63;;;4.07;;
21825;SDS011;11075;47.944;11.776;2022-10-31T00:43:43;12.47;;;4.60;;
21825;SDS011;11075;47.944;11.776;2022-10-31T00:46:10;13.27;;;4.90;;
21825;SDS011;11075;47.944;11.776;2022-10-31T00:48:40;11.80;;;4.30;;
21825;SDS011;11075;47.944;11.776;2022-10-31T00:51:07;7.33;;;3.90;;
21825;SDS011;11075;47.944;11.776;2022-10-31T00:53:35;9.07;;;4.20;;
21825;SDS011;11075;47.944;11.776;2022-10-31T00:56:02;13.37;;;4.47;;
21825;SDS011;11075;47.944;11.776;2022-10-31T00:58:29;9.80;;;4.60;;
21825;SDS011;11075;47.944;11.776;2022-10-31T01:00:56;8.80;;;4.70;;
21825;SDS011;11075;47.944;11.776;2022-10-31T01:03:24;8.80;;;4.13;;
21825;SDS011;11075;47.944;11.776;2022-10-31T01:05:56;10.53;;;4.73;;
21825;SDS011;11075;47.944;11.776;2022-10-31T01:08:25;12.53;;;3.77;;
21825;SDS011;11075;47.944;11.776;2022-10-31T01:10:59;10.43;;;4.10;;
21825;SDS011;11075;47.944;11.776;2022-10-31T01:13:41;8.70;;;4.30;;
21825;SDS011;11075;47.944;11.776;2022-10-31T01:16:10;9.97;;;3.47;;
21825;SDS011;11075;47.944;11.776;2022-10-31T01:18:38;9.30;;;4.40;;
21825;SDS011;11075;47.944;11.776;2022-10-31T01:21:09;10.87;;;4.57;;
21825;SDS011;11075;47.944;11.776;2022-10-31T01:23:37;13.90;;;5.10;;
21825;SDS011;11075;47.944;11.776;2022-10-31T01:26:07;13.63;;;4.43;;
21825;SDS011;11075;47.944;11.776;2022-10-31T01:28:39;15.07;;;4.73;;
21825;SDS011;11075;47.944;11.776;2022-10-31T01:31:11;13.57;;;4.57;;
21825;SDS011;11075;47.944;11.776;2022-10-31T01:33:38;10.10;;;4.90;;
21825;SDS011;11075;47.944;11.776;2022-10-31T01:36:15;10.60;;;4.67;;
21825;SDS011;11075;47.944;11.776;2022-10-31T01:38:51;12.30;;;4.47;;
21825;SDS011;11075;47.944;11.776;2022-10-31T01:41:22;9.47;;;4.37;;
21825;SDS011;11075;47.944;11.776;2022-10-31T01:43:53;9.37;;;4.83;;
21825;SDS011;11075;47.944;11.776;2022-10-31T01:46:31;8.73;;;3.93;;
21825;SDS011;11075;47.944;11.776;2022-10-31T01:49:02;13.13;;;3.63;;
21825;SDS011;11075;47.944;11.776;2022-10-31T01:51:33;7.43;;;3.83;;
21825;SDS011;11075;47.944;11.776;2022-10-31T01:54:07;11.37;;;3.93;;
21825;SDS011;11075;47.944;11.776;2022-10-31T01:56:38;11.57;;;4.03;;
21825;SDS011;11075;47.944;11.776;2022-10-31T01:59:08;9.77;;;4.13;;
21825;SDS011;11075;47.944;11.776;2022-10-31T02:01:41;13.43;;;4.23;;
21825;SDS011;11075;47.944;11.776;2022-10-31T02:04:09;10.67;;;3.93;;
21825;SDS011;11075;47.944;11.776;2022-10-31T02:06:54;11.83;;;4.30;;
21825;SDS011;11075;47.944;11.776;2022-10-31T02:09:29;11.53;;;4.20;;
21825;SDS011;11075;47.944;11.776;2022-10-31T02:11:57;9.73;;;3.90;;
21825;SDS011;11075;47.944;11.776;2022-10-31T02:14:26;10.47;;;3.70;;
21825;SDS011;11075;47.944;11.776;2022-10-31T02:16:55;7.10;;;3.57;;
21825;SDS011;11075;47.944;11.776;2022-10-31T02:30:35;12.53;;;3.90;;
21825;SDS011;11075;47.944;11.776;2022-10-31T02:33:25;14.23;;;4.40;;
21825;SDS011;11075;47.944;11.776;2022-10-31T02:39:13;7.97;;;2.83;;
21825;SDS011;11075;47.944;11.776;2022-10-31T02:47:14;11.10;;;3.40;;
21825;SDS011;11075;47.944;11.776;2022-10-31T02:52:31;7.83;;;3.60;;
21825;SDS011;11075;47.944;11.776;2022-10-31T02:55:10;13.13;;;3.63;;
21825;SDS011;11075;47.944;11.776;2022-10-31T02:57:39;8.93;;;3.40;;
21825;SDS011;11075;47.944;11.776;2022-10-31T03:00:09;8.47;;;3.60;;
21825;SDS011;11075;47.944;11.776;2022-10-31T03:05:30;9.27;;;2.87;;
21825;SDS011;11075;47.944;11.776;2022-10-31T03:11:01;15.07;;;3.47;;
21825;SDS011;11075;47.944;11.776;2022-10-31T03:19:01;11.90;;;3.87;;
21825;SDS011;11075;47.944;11.776;2022-10-31T03:21:43;12.73;;;4.23;;
21825;SDS011;11075;47.944;11.776;2022-10-31T03:24:15;10.73;;;3.53;;
21825;SDS011;11075;47.944;11.776;2022-10-31T03:26:44;7.63;;;3.70;;
21825;SDS011;11075;47.944;11.776;2022-10-31T03:29:15;9.10;;;3.40;;
21825;SDS011;11075;47.944;11.776;2022-10-31T03:34:20;12.30;;;3.67;;
21825;SDS011;11075;47.944;11.776;2022-10-31T03:36:49;7.63;;;3.00;;
21825;SDS011;11075;47.944;11.776;2022-10-31T03:39:19;6.50;;;3.10;;
21825;SDS011;11075;47.944;11.776;2022-10-31T03:41:51;11.77;;;3.20;;
21825;SDS011;11075;47.944;11.776;2022-10-31T03:44:24;7.43;;;3.37;;
21825;SDS011;11075;47.944;11.776;2022-10-31T03:46:59;11.73;;;3.33;;
21825;SDS011;11075;47.944;11.776;2022-10-31T03:49:27;13.60;;;3.70;;
21825;SDS011;11075;47.944;11.776;2022-10-31T03:54:43;8.03;;;3.47;;
21825;SDS011;11075;47.944;11.776;2022-10-31T03:57:29;5.60;;;3.37;;
21825;SDS011;11075;47.944;11.776;2022-10-31T04:00:03;5.67;;;3.10;;
21825;SDS011;11075;47.944;11.776;2022-10-31T04:02:48;5.67;;;2.53;;
21825;SDS011;11075;47.944;11.776;2022-10-31T04:05:20;4.93;;;2.50;;
21825;SDS011;11075;47.944;11.776;2022-10-31T04:07:49;9.70;;;3.20;;
21825;SDS011;11075;47.944;11.776;2022-10-31T04:10:21;6.40;;;3.40;;
21825;SDS011;11075;47.944;11.776;2022-10-31T04:13:00;8.13;;;3.50;;
21825;SDS011;11075;47.944;11.776;2022-10-31T04:15:37;10.63;;;3.10;;
21825;SDS011;11075;47.944;11.776;2022-10-31T04:18:06;8.40;;;3.13;;
21825;SDS011;11075;47.944;11.776;2022-10-31T04:20:39;6.17;;;2.73;;
21825;SDS011;11075;47.944;11.776;2022-10-31T04:23:27;8.77;;;2.97;;
21825;SDS011;11075;47.944;11.776;2022-10-31T04:25:55;12.90;;;2.40;;
21825;SDS011;11075;47.944;11.776;2022-10-31T04:28:23;11.90;;;2.20;;
21825;SDS011;11075;47.944;11.776;2022-10-31T04:30:50;15.80;;;2.47;;
21825;SDS011;11075;47.944;11.776;2022-10-31T04:33:17;9.63;;;2.30;;
21825;SDS011;11075;47.944;11.776;2022-10-31T04:35:46;9.10;;;2.53;;
21825;SDS011;11075;47.944;11.776;2022-10-31T04:38:13;10.43;;;3.13;;
21825;SDS011;11075;47.944;11.776;2022-10-31T04:40:42;7.93;;;3.13;;
21825;SDS011;11075;47.944;11.776;2022-10-31T04:43:15;7.40;;;2.77;;
21825;SDS011;11075;47.944;11.776;2022-10-31T04:45:43;5.23;;;2.67;;
21825;SDS011;11075;47.944;11.776;2022-10-31T04:48:11;5.20;;;2.50;;
21825;SDS011;11075;47.944;11.776;2022-10-31T04:50:41;5.83;;;2.47;;
21825;SDS011;11075;47.944;11.776;2022-10-31T04:53:09;6.03;;;2.50;;
21825;SDS011;11075;47.944;11.776;2022-10-31T04:55:49;5.37;;;2.50;;
21825;SDS011;11075;47.944;11.776;2022-10-31T04:58:19;10.17;;;3.00;;
21825;SDS011;11075;47.944;11.776;2022-10-31T05:00:47;4.67;;;2.40;;
21825;SDS011;11075;47.944;11.776;2022-10-31T05:03:13;7.30;;;2.60;;
21825;SDS011;11075;47.944;11.776;2022-10-31T05:05:41;5.23;;;2.30;;
21825;SDS011;11075;47.944;11.776;2022-10-31T05:08:08;6.20;;;2.40;;
21825;SDS011;11075;47.944;11.776;2022-10-31T05:10:36;5.50;;;2.80;;
21825;SDS011;11075;47.944;11.776;2022-10-31T05:13:03;7.03;;;3.10;;
21825;SDS011;11075;47.944;11.776;2022-10-31T05:16:09;7.80;;;3.10;;
21825;SDS011;11075;47.944;11.776;2022-10-31T05:19:05;12.10;;;3.07;;
21825;SDS011;11075;47.944;11.776;2022-10-31T05:21:51;10.57;;;4.20;;
21825;SDS011;11075;47.944;11.776;2022-10-31T05:24:18;11.57;;;4.20;;
21825;SDS011;11075;47.944;11.776;2022-10-31T05:26:48;9.47;;;3.40;;
21825;SDS011;11075;47.944;11.776;2022-10-31T05:29:16;9.60;;;3.23;;
21825;SDS011;11075;47.944;11.776;2022-10-31T05:31:43;8.77;;;3.50;;
21825;SDS011;11075;47.944;11.776;2022-10-31T05:34:23;6.20;;;3.37;;
21825;SDS011;11075;47.944;11.776;2022-10-31T05:37:19;10.80;;;3.47;;
21825;SDS011;11075;47.944;11.776;2022-10-31T05:39:46;10.07;;;3.50;;
21825;SDS011;11075;47.944;11.776;2022-10-31T05:42:15;7.03;;;3.93;;
21825;SDS011;11075;47.944;11.776;2022-10-31T05:44:43;12.27;;;3.43;;
21825;SDS011;11075;47.944;11.776;2022-10-31T05:47:22;15.60;;;3.57;;
21825;SDS011;11075;47.944;11.776;2022-10-31T05:49:54;9.10;;;3.00;;
21825;SDS011;11075;47.944;11.776;2022-10-31T05:52:43;10.23;;;3.23;;
21825;SDS011;11075;47.944;11.776;2022-10-31T05:55:33;6.97;;;2.97;;
21825;SDS011;11075;47.944;11.776;2022-10-31T05:58:12;7.70;;;3.33;;
21825;SDS011;11075;47.944;11.776;2022-10-31T06:00:47;9.20;;;3.20;;
21825;SDS011;11075;47.944;11.776;2022-10-31T06:03:14;6.90;;;3.30;;
21825;SDS011;11075;47.944;11.776;2022-10-31T06:05:46;8.47;;;3.63;;
21825;SDS011;11075;47.944;11.776;2022-10-31T06:08:20;10.97;;;4.10;;
21825;SDS011;11075;47.944;11.776;2022-10-31T06:10:48;6.23;;;3.43;;
21825;SDS011;11075;47.944;11.776;2022-10-31T06:13:21;12.17;;;3.50;;
21825;SDS011;11075;47.944;11.776;2022-10-31T06:16:02;8.67;;;3.37;;
21825;SDS011;11075;47.944;11.776;2022-10-31T06:18:34;7.83;;;3.17;;
21825;SDS011;11075;47.944;11.776;2022-10-31T06:21:01;6.77;;;3.70;;
21825;SDS011;11075;47.944;11.776;2022-10-31T06:23:28;7.00;;;3.20;;
21825;SDS011;11075;47.944;11.776;2022-10-31T06:26:15;9.50;;;3.60;;
21825;SDS011;11075;47.944;11.776;2022-10-31T06:28:42;6.23;;;3.20;;
21825;SDS011;11075;47.944;11.776;2022-10-31T06:31:21;7.97;;;3.30;;
21825;SDS011;11075;47.944;11.776;2022-10-31T06:33:47;6.13;;;3.30;;
21825;SDS011;11075;47.944;11.776;2022-10-31T06:36:14;7.50;;;3.37;;
21825;SDS011;11075;47.944;11.776;2022-10-31T06:38:41;5.80;;;3.40;;
21825;SDS011;11075;47.944;11.776;2022-10-31T06:41:10;7.93;;;3.30;;
21825;SDS011;11075;47.944;11.776;2022-10-31T06:43:41;7.03;;;3.37;;
21825;SDS011;11075;47.944;11.776;2022-10-31T06:46:29;9.30;;;3.40;;
21825;SDS011;11075;47.944;11.776;2022-10-31T06:49:33;6.73;;;3.30;;
21825;SDS011;11075;47.944;11.776;2022-10-31T06:52:03;8.10;;;3.43;;
21825;SDS011;11075;47.944;11.776;2022-10-31T06:54:31;13.30;;;3.90;;
21825;SDS011;11075;47.944;11.776;2022-10-31T06:56:58;6.20;;;3.80;;
21825;SDS011;11075;47.944;11.776;2022-10-31T06:59:27;9.13;;;3.70;;
21825;SDS011;11075;47.944;11.776;2022-10-31T07:02:00;11.83;;;3.80;;
21825;SDS011;11075;47.944;11.776;2022-10-31T07:04:27;7.87;;;4.77;;
21825;SDS011;11075;47.944;11.776;2022-10-31T07:06:55;12.30;;;5.10;;
21825;SDS011;11075;47.944;11.776;2022-10-31T07:09:22;8.73;;;3.83;;
21825;SDS011;11075;47.944;11.776;2022-10-31T07:11:51;11.33;;;4.37;;
21825;SDS011;11075;47.944;11.776;2022-10-31T07:14:18;9.40;;;4.27;;
21825;SDS011;11075;47.944;11.776;2022-10-31T07:16:50;12.83;;;3.80;;
21825;SDS011;11075;47.944;11.776;2022-10-31T07:19:22;8.00;;;3.97;;
21825;SDS011;11075;47.944;11.776;2022-10-31T07:21:49;9.93;;;4.40;;
21825;SDS011;11075;47.944;11.776;2022-10-31T07:24:16;11.37;;;5.03;;
21825;SDS011;11075;47.944;11.776;2022-10-31T07:26:44;16.10;;;4.10;;
21825;SDS011;11075;47.944;11.776;2022-10-31T07:29:14;7.43;;;3.60;;
21825;SDS011;11075;47.944;11.776;2022-10-31T07:31:41;11.63;;;3.70;;
21825;SDS011;11075;47.944;11.776;2022-10-31T07:34:14;6.50;;;2.42;;
21825;SDS011;11075;47.944;11.776;2022-10-31T07:36:59;4.55;;;2.10;;
21825;SDS011;11075;47.944;11.776;2022-10-31T07:39:26;5.18;;;2.13;;
21825;SDS011;11075;47.944;11.776;2022-10-31T07:41:53;6.38;;;2.72;;
21825;SDS011;11075;47.944;11.776;2022-10-31T07:44:20;5.43;;;2.40;;
21825;SDS011;11075;47.944;11.776;2022-10-31T07:47:05;4.82;;;2.17;;
21825;SDS011;11075;47.944;11.776;2022-10-31T07:49:50;5.10;;;1.98;;
21825;SDS011;11075;47.944;11.776;2022-10-31T07:52:36;5.57;;;2.13;;
21825;SDS011;11075;47.944;11.776;2022-10-31T07:55:26;4.30;;;1.80;;
21825;SDS011;11075;47.944;11.776;2022-10-31T07:58:00;5.00;;;2.08;;
21825;SDS011;11075;47.944;11.776;2022-10-31T08:00:30;4.18;;;1.70;;
21825;SDS011;11075;47.944;11.776;2022-10-31T08:03:05;3.97;;;1.73;;
21825;SDS011;11075;47.944;11.776;2022-10-31T08:05:52;4.53;;;1.80;;
21825;SDS011;11075;47.944;11.776;2022-10-31T08:08:32;5.50;;;2.05;;
21825;SDS011;11075;47.944;11.776;2022-10-31T08:11:04;5.10;;;1.83;;
21825;SDS011;11075;47.944;11.776;2022-10-31T08:13:31;6.82;;;2.05;;
21825;SDS011;11075;47.944;11.776;2022-10-31T08:15:58;4.30;;;1.80;;
21825;SDS011;11075;47.944;11.776;2022-10-31T08:18:32;6.13;;;2.15;;
21825;SDS011;11075;47.944;11.776;2022-10-31T08:20:59;4.20;;;1.85;;
21825;SDS011;11075;47.944;11.776;2022-10-31T08:23:26;6.68;;;2.45;;
21825;SDS011;11075;47.944;11.776;2022-10-31T08:25:55;9.10;;;2.72;;
21825;SDS011;11075;47.944;11.776;2022-10-31T08:28:23;7.20;;;2.00;;
21825;SDS011;11075;47.944;11.776;2022-10-31T08:30:52;11.63;;;2.15;;
21825;SDS011;11075;47.944;11.776;2022-10-31T08:33:37;5.18;;;2.28;;
21825;SDS011;11075;47.944;11.776;2022-10-31T08:36:24;6.05;;;3.30;;
21825;SDS011;11075;47.944;11.776;2022-10-31T08:39:03;4.80;;;2.30;;
21825;SDS011;11075;47.944;11.776;2022-10-31T08:41:31;5.40;;;2.10;;
21825;SDS011;11075;47.944;11.776;2022-10-31T08:44:00;4.45;;;2.05;;
21825;SDS011;11075;47.944;11.776;2022-10-31T08:46:27;7.07;;;2.67;;
21825;SDS011;11075;47.944;11.776;2022-10-31T08:48:55;10.32;;;2.47;;
21825;SDS011;11075;47.944;11.776;2022-10-31T08:51:22;6.63;;;2.13;;
21825;SDS011;11075;47.944;11.776;2022-10-31T08:53:52;5.93;;;2.13;;
21825;SDS011;11075;47.944;11.776;2022-10-31T08:56:34;9.35;;;2.22;;
21825;SDS011;11075;47.944;11.776;2022-10-31T08:59:05;6.65;;;1.80;;
21825;SDS011;11075;47.944;11.776;2022-10-31T09:01:54;5.68;;;1.63;;
21825;SDS011;11075;47.944;11.776;2022-10-31T09:04:22;5.82;;;1.85;;
21825;SDS011;11075;47.944;11.776;2022-10-31T09:06:50;6.75;;;2.00;;
21825;SDS011;11075;47.944;11.776;2022-10-31T09:09:37;6.75;;;2.30;;
21825;SDS011;11075;47.944;11.776;2022-10-31T09:12:04;10.50;;;2.08;;
21825;SDS011;11075;47.944;11.776;2022-10-31T09:14:49;7.32;;;1.90;;
21825;SDS011;11075;47.944;11.776;2022-10-31T09:17:27;4.55;;;1.88;;
21825;SDS011;11075;47.944;11.776;2022-10-31T09:20:15;6.05;;;1.90;;
21825;SDS011;11075;47.944;11.776;2022-10-31T09:22:42;13.55;;;2.70;;
21825;SDS011;11075;47.944;11.776;2022-10-31T09:25:11;8.57;;;1.95;;
21825;SDS011;11075;47.944;11.776;2022-10-31T09:27:41;6.47;;;1.83;;
21825;SDS011;11075;47.944;11.776;2022-10-31T09:30:10;10.82;;;2.60;;
21825;SDS011;11075;47.944;11.776;2022-10-31T09:32:38;7.38;;;2.05;;
21825;SDS011;11075;47.944;11.776;2022-10-31T09:35:05;9.48;;;3.08;;
21825;SDS011;11075;47.944;11.776;2022-10-31T09:37:32;17.83;;;2.33;;
21825;SDS011;11075;47.944;11.776;2022-10-31T09:39:59;10.15;;;2.03;;
21825;SDS011;11075;47.944;11.776;2022-10-31T09:45:23;8.02;;;2.20;;
21825;SDS011;11075;47.944;11.776;2022-10-31T09:51:11;7.97;;;2.08;;
21825;SDS011;11075;47.944;11.776;2022-10-31T09:53:52;9.70;;;2.67;;
21825;SDS011;11075;47.944;11.776;2022-10-31T09:56:26;7.00;;;2.80;;
21825;SDS011;11075;47.944;11.776;2022-10-31T09:58:59;9.15;;;2.50;;
21825;SDS011;11075;47.944;11.776;2022-10-31T10:07:21;10.68;;;2.53;;
21825;SDS011;11075;47.944;11.776;2022-10-31T10:24:23;9.40;;;2.28;;
21825;SDS011;11075;47.944;11.776;2022-10-31T10:26:56;10.68;;;2.20;;
21825;SDS011;11075;47.944;11.776;2022-10-31T10:29:40;5.40;;;2.60;;
21825;SDS011;11075;47.944;11.776;2022-10-31T10:32:21;11.05;;;2.20;;
21825;SDS011;11075;47.944;11.776;2022-10-31T10:34:51;6.70;;;2.97;;
21825;SDS011;11075;47.944;11.776;2022-10-31T10:37:28;9.13;;;2.47;;
21825;SDS011;11075;47.944;11.776;2022-10-31T10:40:23;10.85;;;2.22;;
21825;SDS011;11075;47.944;11.776;2022-10-31T10:42:56;10.25;;;2.65;;
21825;SDS011;11075;47.944;11.776;2022-10-31T10:49:12;8.93;;;2.30;;
21825;SDS011;11075;47.944;11.776;2022-10-31T10:51:44;10.43;;;2.40;;
21825;SDS011;11075;47.944;11.776;2022-10-31T10:54:56;14.00;;;2.58;;
21825;SDS011;11075;47.944;11.776;2022-10-31T11:00:47;13.18;;;2.60;;
21825;SDS011;11075;47.944;11.776;2022-10-31T11:03:17;8.25;;;2.60;;
21825;SDS011;11075;47.944;11.776;2022-10-31T11:05:49;5.13;;;2.25;;
21825;SDS011;11075;47.944;11.776;2022-10-31T11:08:25;9.55;;;2.42;;
21825;SDS011;11075;47.944;11.776;2022-10-31T11:11:01;8.25;;;2.35;;
21825;SDS011;11075;47.944;11.776;2022-10-31T11:13:30;9.60;;;2.63;;
21825;SDS011;11075;47.944;11.776;2022-10-31T11:16:00;10.20;;;2.60;;
21825;SDS011;11075;47.944;11.776;2022-10-31T11:18:34;12.75;;;2.60;;
21825;SDS011;11075;47.944;11.776;2022-10-31T11:21:04;13.82;;;2.63;;
21825;SDS011;11075;47.944;11.776;2022-10-31T11:23:32;8.82;;;2.97;;
21825;SDS011;11075;47.944;11.776;2022-10-31T11:26:01;8.70;;;2.42;;
21825;SDS011;11075;47.944;11.776;2022-10-31T11:28:30;11.50;;;2.33;;
21825;SDS011;11075;47.944;11.776;2022-10-31T11:31:08;8.32;;;2.25;;
21825;SDS011;11075;47.944;11.776;2022-10-31T11:33:45;9.93;;;2.60;;
21825;SDS011;11075;47.944;11.776;2022-10-31T11:38:43;12.95;;;2.67;;
21825;SDS011;11075;47.944;11.776;2022-10-31T11:41:14;11.00;;;2.42;;
21825;SDS011;11075;47.944;11.776;2022-10-31T11:44:01;8.77;;;2.50;;
21825;SDS011;11075;47.944;11.776;2022-10-31T11:46:39;7.90;;;2.45;;
21825;SDS011;11075;47.944;11.776;2022-10-31T11:49:16;10.85;;;2.50;;
21825;SDS011;11075;47.944;11.776;2022-10-31T11:51:49;7.78;;;2.75;;
21825;SDS011;11075;47.944;11.776;2022-10-31T11:54:29;10.25;;;2.83;;
21825;SDS011;11075;47.944;11.776;2022-10-31T11:56:59;12.32;;;3.45;;
21825;SDS011;11075;47.944;11.776;2022-10-31T11:59:28;4.82;;;2.20;;
21825;SDS011;11075;47.944;11.776;2022-10-31T12:01:58;8.82;;;2.38;;
21825;SDS011;11075;47.944;11.776;2022-10-31T12:04:32;9.90;;;2.85;;
21825;SDS011;11075;47.944;11.776;2022-10-31T12:07:01;11.02;;;3.42;;
21825;SDS011;11075;47.944;11.776;2022-10-31T12:09:30;14.73;;;3.83;;
21825;SDS011;11075;47.944;11.776;2022-10-31T12:15:09;10.30;;;2.72;;
21825;SDS011;11075;47.944;11.776;2022-10-31T12:25:51;7.15;;;2.47;;
21825;SDS011;11075;47.944;11.776;2022-10-31T12:31:34;10.05;;;2.60;;
21825;SDS011;11075;47.944;11.776;2022-10-31T12:46:29;9.02;;;2.50;;
21825;SDS011;11075;47.944;11.776;2022-10-31T12:52:18;9.45;;;3.45;;
21825;SDS011;11075;47.944;11.776;2022-10-31T12:54:56;9.10;;;2.83;;
21825;SDS011;11075;47.944;11.776;2022-10-31T12:57:33;15.43;;;2.50;;
21825;SDS011;11075;47.944;11.776;2022-10-31T13:00:16;7.30;;;2.83;;
21825;SDS011;11075;47.944;11.776;2022-10-31T13:02:59;8.73;;;2.85;;
21825;SDS011;11075;47.944;11.776;2022-10-31T13:05:49;8.38;;;3.00;;
21825;SDS011;11075;47.944;11.776;2022-10-31T13:08:33;8.57;;;2.70;;
21825;SDS011;11075;47.944;11.776;2022-10-31T13:16:56;5.68;;;2.75;;
21825;SDS011;11075;47.944;11.776;2022-10-31T13:22:00;5.95;;;3.13;;
21825;SDS011;11075;47.944;11.776;2022-10-31T13:24:42;13.35;;;3.67;;
21825;SDS011;11075;47.944;11.776;2022-10-31T13:27:30;9.57;;;2.88;;
21825;SDS011;11075;47.944;11.776;2022-10-31T13:30:16;7.53;;;2.40;;
21825;SDS011;11075;47.944;11.776;2022-10-31T13:32:49;9.38;;;3.05;;
21825;SDS011;11075;47.944;11.776;2022-10-31T13:38:25;14.55;;;3.28;;
21825;SDS011;11075;47.944;11.776;2022-10-31T13:41:10;15.75;;;4.47;;
21825;SDS011;11075;47.944;11.776;2022-10-31T13:49:02;11.15;;;3.22;;
21825;SDS011;11075;47.944;11.776;2022-10-31T13:51:32;15.35;;;4.00;;
21825;SDS011;11075;47.944;11.776;2022-10-31T13:54:06;10.30;;;3.10;;
21825;SDS011;11075;47.944;11.776;2022-10-31T13:56:49;9.52;;;3.17;;
21825;SDS011;11075;47.944;11.776;2022-10-31T13:59:21;11.25;;;4.15;;
21825;SDS011;11075;47.944;11.776;2022-10-31T14:01:51;8.35;;;2.92;;
21825;SDS011;11075;47.944;11.776;2022-10-31T14:04:22;8.88;;;2.65;;
21825;SDS011;11075;47.944;11.776;2022-10-31T14:09:24;9.48;;;2.92;;
21825;SDS011;11075;47.944;11.776;2022-10-31T14:11:56;10.75;;;3.30;;
21825;SDS011;11075;47.944;11.776;2022-10-31T14:14:26;9.15;;;2.85;;
21825;SDS011;11075;47.944;11.776;2022-10-31T14:16:59;13.90;;;3.85;;
21825;SDS011;11075;47.944;11.776;2022-10-31T14:19:27;6.70;;;2.85;;
21825;SDS011;11075;47.944;11.776;2022-10-31T14:21:54;9.93;;;3.17;;
21825;SDS011;11075;47.944;11.776;2022-10-31T14:27:01;14.05;;;3.08;;
21825;SDS011;11075;47.944;11.776;2022-10-31T14:29:31;8.70;;;3.05;;
21825;SDS011;11075;47.944;11.776;2022-10-31T14:45:35;10.38;;;3.22;;
21825;SDS011;11075;47.944;11.776;2022-10-31T14:51:13;8.38;;;3.35;;
21825;SDS011;11075;47.944;11.776;2022-10-31T14:53:51;15.50;;;3.83;;
21825;SDS011;11075;47.944;11.776;2022-10-31T14:56:24;8.73;;;3.67;;
21825;SDS011;11075;47.944;11.776;2022-10-31T14:58:55;11.13;;;3.60;;
21825;SDS011;11075;47.944;11.776;2022-10-31T15:10:00;10.32;;;3.70;;
21825;SDS011;11075;47.944;11.776;2022-10-31T15:12:32;9.20;;;3.25;;
21825;SDS011;11075;47.944;11.776;2022-10-31T15:15:14;16.05;;;5.45;;
21825;SDS011;11075;47.944;11.776;2022-10-31T15:17:52;10.98;;;3.25;;
21825;SDS011;11075;47.944;11.776;2022-10-31T15:20:22;15.50;;;3.70;;
21825;SDS011;11075;47.944;11.776;2022-10-31T15:22:53;18.02;;;4.13;;
21825;SDS011;11075;47.944;11.776;2022-10-31T15:25:23;5.50;;;3.42;;
21825;SDS011;11075;47.944;11.776;2022-10-31T15:27:52;15.45;;;3.60;;
21825;SDS011;11075;47.944;11.776;2022-10-31T15:30:21;13.60;;;3.30;;
21825;SDS011;11075;47.944;11.776;2022-10-31T15:32:52;10.07;;;3.03;;
21825;SDS011;11075;47.944;11.776;2022-10-31T15:35:25;12.30;;;3.17;;
21825;SDS011;11075;47.944;11.776;2022-10-31T15:37:55;13.27;;;3.38;;
21825;SDS011;11075;47.944;11.776;2022-10-31T15:40:24;15.32;;;3.40;;
21825;SDS011;11075;47.944;11.776;2022-10-31T15:43:03;11.93;;;3.05;;
21825;SDS011;11075;47.944;11.776;2022-10-31T15:45:33;13.57;;;3.20;;
21825;SDS011;11075;47.944;11.776;2022-10-31T15:48:03;13.60;;;3.28;;
21825;SDS011;11075;47.944;11.776;2022-10-31T15:50:53;14.77;;;3.28;;
21825;SDS011;11075;47.944;11.776;2022-10-31T15:55:55;10.32;;;2.85;;
21825;SDS011;11075;47.944;11.776;2022-10-31T15:58:25;11.27;;;4.00;;
21825;SDS011;11075;47.944;11.776;2022-10-31T16:00:56;10.73;;;2.90;;
21825;SDS011;11075;47.944;11.776;2022-10-31T16:03:26;16.55;;;3.70;;
21825;SDS011;11075;47.944;11.776;2022-10-31T16:05:56;12.30;;;3.42;;
21825;SDS011;11075;47.944;11.776;2022-10-31T16:13:34;13.07;;;3.60;;
21825;SDS011;11075;47.944;11.776;2022-10-31T16:16:15;11.57;;;3.35;;
21825;SDS011;11075;47.944;11.776;2022-10-31T16:19:02;8.90;;;2.78;;
21825;SDS011;11075;47.944;11.776;2022-10-31T16:21:32;11.60;;;3.30;;
21825;SDS011;11075;47.944;11.776;2022-10-31T16:24:46;17.48;;;3.78;;
21825;SDS011;11075;47.944;11.776;2022-10-31T16:27:00;6.35;;;2.97;;
21825;SDS011;11075;47.944;11.776;2022-10-31T16:29:38;15.45;;;3.40;;
21825;SDS011;11075;47.944;11.776;2022-10-31T16:32:24;9.95;;;3.00;;
21825;SDS011;11075;47.944;11.776;2022-10-31T16:37:38;10.88;;;3.55;;
21825;SDS011;11075;47.944;11.776;2022-10-31T16:40:07;14.38;;;3.20;;
21825;SDS011;11075;47.944;11.776;2022-10-31T16:42:36;11.00;;;3.22;;
21825;SDS011;11075;47.944;11.776;2022-10-31T16:45:04;9.05;;;3.25;;
21825;SDS011;11075;47.944;11.776;2022-10-31T16:47:32;12.40;;;3.33;;
21825;SDS011;11075;47.944;11.776;2022-10-31T16:49:59;7.63;;;3.42;;
21825;SDS011;11075;47.944;11.776;2022-10-31T16:52:27;10.88;;;3.15;;
21825;SDS011;11075;47.944;11.776;2022-10-31T16:55:03;9.63;;;3.40;;
21825;SDS011;11075;47.944;11.776;2022-10-31T16:57:32;8.23;;;3.28;;
21825;SDS011;11075;47.944;11.776;2022-10-31T16:59:59;5.93;;;2.95;;
21825;SDS011;11075;47.944;11.776;2022-10-31T17:02:25;10.32;;;3.05;;
21825;SDS011;11075;47.944;11.776;2022-10-31T17:04:52;6.80;;;3.37;;
21825;SDS011;11075;47.944;11.776;2022-10-31T17:07:22;10.73;;;3.67;;
21825;SDS011;11075;47.944;11.776;2022-10-31T17:09:49;15.57;;;3.67;;
21825;SDS011;11075;47.944;11.776;2022-10-31T17:12:18;8.83;;;3.67;;
21825;SDS011;11075;47.944;11.776;2022-10-31T17:14:48;15.02;;;4.38;;
21825;SDS011;11075;47.944;11.776;2022-10-31T17:17:17;12.23;;;4.10;;
21825;SDS011;11075;47.944;11.776;2022-10-31T17:19:44;11.82;;;3.70;;
21825;SDS011;11075;47.944;11.776;2022-10-31T17:22:11;10.47;;;3.90;;
21825;SDS011;11075;47.944;11.776;2022-10-31T17:24:40;10.90;;;3.73;;
21825;SDS011;11075;47.944;11.776;2022-10-31T17:27:07;8.97;;;3.53;;
21825;SDS011;11075;47.944;11.776;2022-10-31T17:29:34;8.13;;;3.60;;
21825;SDS011;11075;47.944;11.776;2022-10-31T17:32:01;12.13;;;4.28;;
21825;SDS011;11075;47.944;11.776;2022-10-31T17:34:29;11.30;;;4.23;;
21825;SDS011;11075;47.944;11.776;2022-10-31T17:36:56;16.93;;;3.87;;
21825;SDS011;11075;47.944;11.776;2022-10-31T17:39:23;13.30;;;3.27;;
21825;SDS011;11075;47.944;11.776;2022-10-31T17:41:50;12.67;;;3.93;;
21825;SDS011;11075;47.944;11.776;2022-10-31T17:44:18;6.63;;;3.17;;
21825;SDS011;11075;47.944;11.776;2022-10-31T17:46:46;7.17;;;3.50;;